KRCR/RCR METAR and TAF weather

Enter ICAO airport designator
Station Type Date Time Source
KRCR METAR 2023/02/05 13:35 UTC NOAA

KRCR 051335Z AUTO 22009KT 10SM OVC065 03/M00 A2992 RMK AO2


Station Type Date Time Source
KRCR Decoded METAR 2023/02/05 13:35 UTC NOAA

Station name not available
Feb 05, 2023 - 08:35 AM EST / 2023.02.05 1335 UTC
Wind: from the SW (220 degrees) at 10 MPH (9 KT):0
Visibility: 10 mile(s):0
Sky conditions: overcast
Temperature: 37 F (3 C)
Dew Point: 32 F (0 C)
Relative Humidity: 80%
Pressure (altimeter): 29.92 in. Hg (1013 hPa)
ob: KRCR 051335Z AUTO 22009KT 10SM OVC065 03/M00 A2992 RMK AO2
cycle: 13

Station Type Date Time Source
KRCR TAF UTC NOAA

Error!

Example: see airport list